createdAt,value
2023-05-15T00:00:34.170Z,15.40
2023-05-15T00:03:02.521Z,16.27
2023-05-15T00:05:29.961Z,17.08
2023-05-15T00:07:57.441Z,16.37
2023-05-15T00:10:25.141Z,16.12
2023-05-15T00:12:52.544Z,16.90
2023-05-15T00:15:19.946Z,17.52
2023-05-15T00:17:47.610Z,15.77
2023-05-15T00:20:15.635Z,16.40
2023-05-15T00:22:44.465Z,15.38
2023-05-15T00:25:14.481Z,15.55
2023-05-15T00:27:41.910Z,15.23
2023-05-15T00:30:09.700Z,17.05
2023-05-15T00:32:37.440Z,16.27
2023-05-15T00:35:05.378Z,15.23
2023-05-15T00:37:32.869Z,15.80
2023-05-15T00:40:00.944Z,15.98
2023-05-15T00:42:29.154Z,15.77
2023-05-15T00:44:57.120Z,15.55
2023-05-15T00:47:26.791Z,13.75
2023-05-15T00:49:54.573Z,15.25
2023-05-15T00:52:22.233Z,14.75
2023-05-15T00:54:50.039Z,14.52
2023-05-15T00:57:18.205Z,14.70
2023-05-15T00:59:45.634Z,15.30
2023-05-15T01:02:16.051Z,14.20
2023-05-15T01:04:43.503Z,15.10
2023-05-15T01:07:11.008Z,15.82
2023-05-15T01:09:42.241Z,16.37
2023-05-15T01:12:10.126Z,14.80
2023-05-15T01:14:37.630Z,15.60
2023-05-15T01:17:06.897Z,14.90
2023-05-15T01:19:36.143Z,15.30
2023-05-15T01:22:12.672Z,14.98
2023-05-15T01:24:59.887Z,15.23
2023-05-15T01:27:41.982Z,14.98
2023-05-15T01:30:23.669Z,16.35
2023-05-15T01:33:00.007Z,17.10
2023-05-15T01:35:51.834Z,17.25
2023-05-15T01:38:32.734Z,17.37
2023-05-15T01:41:06.747Z,18.15
2023-05-15T01:43:35.505Z,17.77
2023-05-15T01:46:04.063Z,17.05
2023-05-15T01:48:33.560Z,17.00
2023-05-15T01:51:03.786Z,16.08
2023-05-15T01:53:32.989Z,16.25
2023-05-15T01:56:00.453Z,15.90
2023-05-15T01:58:28.317Z,13.98
2023-05-15T02:00:56.655Z,15.38
2023-05-15T02:03:24.849Z,14.00
2023-05-15T02:05:53.636Z,14.52
2023-05-15T02:08:21.746Z,14.43
2023-05-15T02:10:49.736Z,14.25
2023-05-15T02:13:20.270Z,15.93
2023-05-15T02:15:48.071Z,15.65
2023-05-15T02:18:15.751Z,15.15
2023-05-15T02:20:43.435Z,14.18
2023-05-15T02:23:11.199Z,16.17
2023-05-15T02:26:04.673Z,15.88
2023-05-15T02:28:39.966Z,14.35
2023-05-15T02:31:26.993Z,15.73
2023-05-15T02:34:18.651Z,14.75
2023-05-15T02:36:48.899Z,14.77
2023-05-15T02:39:17.628Z,15.95
2023-05-15T02:41:46.969Z,15.02
2023-05-15T02:44:17.964Z,16.05
2023-05-15T02:46:47.551Z,15.88
2023-05-15T02:49:15.637Z,15.20
2023-05-15T02:51:43.171Z,15.43
2023-05-15T02:54:11.590Z,14.40
2023-05-15T02:56:39.000Z,14.50
2023-05-15T02:59:06.538Z,14.38
2023-05-15T03:01:34.305Z,14.60
2023-05-15T03:04:02.664Z,13.95
2023-05-15T03:06:31.692Z,15.18
2023-05-15T03:08:59.396Z,14.85
2023-05-15T03:11:26.789Z,16.85
2023-05-15T03:13:54.167Z,15.43
2023-05-15T03:16:21.847Z,14.40
2023-05-15T03:18:49.407Z,15.07
2023-05-15T03:21:17.746Z,16.17
2023-05-15T03:23:45.537Z,15.40
2023-05-15T03:26:13.023Z,15.48
2023-05-15T03:28:42.184Z,14.15
2023-05-15T03:31:10.141Z,15.07
2023-05-15T03:33:38.297Z,15.68
2023-05-15T03:36:06.553Z,14.85
2023-05-15T03:38:34.223Z,15.25
2023-05-15T03:41:01.593Z,14.48
2023-05-15T03:43:30.295Z,15.77
2023-05-15T03:45:59.198Z,14.20
2023-05-15T03:48:26.604Z,14.38
2023-05-15T03:50:54.214Z,16.33
2023-05-15T03:53:21.941Z,15.38
2023-05-15T03:55:49.366Z,15.10
2023-05-15T03:58:16.754Z,14.32
2023-05-15T04:00:44.455Z,15.02
2023-05-15T04:03:12.216Z,15.65
2023-05-15T04:05:39.699Z,17.08
2023-05-15T04:08:07.133Z,17.33
2023-05-15T04:10:34.848Z,15.48
2023-05-15T04:13:02.253Z,19.42
2023-05-15T04:15:29.838Z,16.80
2023-05-15T04:17:57.569Z,19.17
2023-05-15T04:20:25.201Z,17.48
2023-05-15T04:22:52.879Z,19.48
2023-05-15T04:25:20.855Z,20.42
2023-05-15T04:27:49.366Z,18.35
2023-05-15T04:30:18.378Z,18.67
2023-05-15T04:32:46.045Z,19.27
2023-05-15T04:35:15.059Z,18.27
2023-05-15T04:37:43.598Z,18.27
2023-05-15T04:40:12.234Z,18.20
2023-05-15T04:42:39.811Z,19.23
2023-05-15T04:45:08.066Z,17.95
2023-05-15T04:47:36.357Z,19.77
2023-05-15T04:50:04.043Z,19.02
2023-05-15T04:52:32.322Z,20.90
2023-05-15T04:55:00.061Z,19.98
2023-05-15T04:57:27.662Z,19.98
2023-05-15T04:59:55.079Z,20.75
2023-05-15T05:02:23.248Z,20.40
2023-05-15T05:04:51.018Z,20.05
2023-05-15T05:07:18.428Z,20.27
2023-05-15T05:09:46.131Z,19.50
2023-05-15T05:12:14.169Z,21.02
2023-05-15T05:14:42.221Z,19.50
2023-05-15T05:17:10.214Z,20.30
2023-05-15T05:19:37.590Z,18.55
2023-05-15T05:22:06.025Z,20.92
2023-05-15T05:24:37.712Z,20.50
2023-05-15T05:27:05.747Z,18.83
2023-05-15T05:29:33.338Z,17.48
2023-05-15T05:32:01.416Z,17.00
2023-05-15T05:34:30.416Z,18.27
2023-05-15T05:36:57.862Z,17.23
2023-05-15T05:39:25.689Z,18.33
2023-05-15T05:41:53.147Z,18.27
2023-05-15T05:44:20.600Z,18.25
2023-05-15T05:46:48.297Z,17.67
2023-05-15T05:49:15.769Z,18.65
2023-05-15T05:51:44.936Z,18.83
2023-05-15T05:54:14.935Z,19.90
2023-05-15T05:56:42.833Z,18.20
2023-05-15T05:59:10.444Z,17.23
2023-05-15T06:01:38.162Z,18.62
2023-05-15T06:04:06.052Z,17.50
2023-05-15T06:06:34.592Z,15.90
2023-05-15T06:09:02.283Z,15.57
2023-05-15T06:11:30.002Z,15.40
2023-05-15T06:13:57.410Z,14.80
2023-05-15T06:16:24.835Z,15.85
2023-05-15T06:18:53.121Z,12.80
2023-05-15T06:21:22.372Z,14.73
2023-05-15T06:23:49.997Z,13.57
2023-05-15T06:26:17.966Z,12.02
2023-05-15T06:28:45.355Z,12.18
2023-05-15T06:31:12.763Z,12.77
2023-05-15T06:33:40.545Z,13.77
2023-05-15T06:36:08.062Z,12.07
2023-05-15T06:38:36.072Z,11.57
2023-05-15T06:41:03.961Z,12.63
2023-05-15T06:43:31.369Z,10.38
2023-05-15T06:45:59.194Z,11.50
2023-05-15T06:48:26.826Z,11.05
2023-05-15T06:50:54.253Z,10.93
2023-05-15T06:53:22.748Z,9.55
2023-05-15T06:55:50.398Z,10.00
2023-05-15T06:58:18.100Z,10.57
2023-05-15T07:00:45.570Z,10.43
2023-05-15T07:03:14.516Z,9.50
2023-05-15T07:05:42.375Z,7.80
2023-05-15T07:08:09.797Z,8.75
2023-05-15T07:10:37.491Z,8.48
2023-05-15T07:13:04.896Z,8.82
2023-05-15T07:15:32.317Z,7.65
2023-05-15T07:18:00.011Z,7.82
2023-05-15T07:20:30.303Z,8.27
2023-05-15T07:22:59.965Z,7.43
2023-05-15T07:25:27.603Z,7.03
2023-05-15T07:27:55.229Z,7.37
2023-05-15T07:30:23.443Z,6.07
2023-05-15T07:32:50.983Z,7.22
2023-05-15T07:35:18.530Z,7.03
2023-05-15T07:37:46.754Z,8.75
2023-05-15T07:40:15.474Z,8.98
2023-05-15T07:42:44.170Z,7.53
2023-05-15T07:45:11.967Z,8.75
2023-05-15T07:47:42.799Z,7.68
2023-05-15T07:50:10.598Z,7.57
2023-05-15T07:52:38.289Z,7.70
2023-05-15T07:55:07.478Z,7.03
2023-05-15T10:34:14.531Z,2.83
2023-05-15T10:36:43.178Z,2.33
2023-05-15T10:39:11.052Z,2.20
2023-05-15T10:41:39.757Z,1.90
2023-05-15T10:44:07.520Z,1.80
2023-05-15T10:46:36.150Z,2.10
2023-05-15T10:49:04.508Z,1.75
2023-05-15T10:51:33.556Z,1.90
2023-05-15T10:54:03.711Z,1.75
2023-05-15T10:56:32.202Z,2.05
2023-05-15T10:59:08.829Z,1.83
2023-05-15T11:01:38.699Z,1.90
2023-05-15T11:04:17.688Z,1.85
2023-05-15T11:06:49.419Z,1.80
2023-05-15T11:09:25.917Z,1.80
2023-05-15T11:11:57.158Z,1.77
2023-05-15T11:14:27.274Z,1.90
2023-05-15T11:16:55.789Z,2.40
2023-05-15T11:19:29.136Z,2.75
2023-05-15T11:22:01.193Z,3.17
2023-05-15T11:24:30.709Z,2.58
2023-05-15T11:27:03.029Z,1.70
2023-05-15T11:29:31.471Z,1.85
2023-05-15T11:31:59.713Z,1.77
2023-05-15T11:34:31.684Z,2.37
2023-05-15T11:37:02.616Z,2.00
2023-05-15T11:39:30.160Z,1.90
2023-05-15T11:41:58.235Z,2.42
2023-05-15T11:44:26.905Z,1.90
2023-05-15T11:46:55.263Z,2.20
2023-05-15T11:49:22.914Z,2.05
2023-05-15T11:51:51.320Z,4.62
2023-05-15T11:54:18.790Z,1.70
2023-05-15T11:56:47.224Z,1.60
2023-05-15T11:59:15.068Z,1.52
2023-05-15T12:01:43.970Z,2.47
2023-05-15T12:04:13.885Z,1.40
2023-05-15T12:06:41.800Z,1.75
2023-05-15T12:09:14.363Z,1.12
2023-05-15T12:11:42.055Z,1.60
2023-05-15T12:14:12.764Z,1.40
2023-05-15T12:16:40.110Z,1.12
2023-05-15T12:19:07.985Z,1.30
2023-05-15T12:21:37.697Z,1.35
2023-05-15T12:24:08.050Z,1.50
2023-05-15T12:26:36.448Z,2.22
2023-05-15T12:29:04.423Z,1.40
2023-05-15T12:31:33.493Z,1.30
2023-05-15T12:34:01.219Z,1.35
2023-05-15T12:36:31.695Z,1.50
2023-05-15T12:39:05.112Z,1.30
2023-05-15T12:41:32.786Z,1.45
2023-05-15T12:44:00.159Z,1.17
2023-05-15T12:46:31.866Z,1.10
2023-05-15T12:48:59.843Z,0.90
2023-05-15T12:51:29.808Z,0.70
2023-05-15T12:53:58.293Z,1.10
2023-05-15T12:56:26.428Z,1.10
2023-05-15T12:58:54.610Z,0.80
2023-05-15T13:01:22.168Z,0.68
2023-05-15T13:03:51.188Z,1.00
2023-05-15T13:06:18.845Z,0.68
2023-05-15T13:08:47.730Z,0.85
2023-05-15T13:11:18.238Z,1.02
2023-05-15T13:13:47.670Z,0.70
2023-05-15T13:16:22.794Z,0.60
2023-05-15T13:18:50.818Z,0.80
2023-05-15T13:21:18.562Z,0.68
2023-05-15T13:23:46.029Z,0.98
2023-05-15T13:26:13.923Z,0.62
2023-05-15T13:28:41.316Z,1.00
2023-05-15T13:31:08.810Z,0.70
2023-05-15T13:33:36.502Z,0.80
2023-05-15T13:36:04.093Z,0.82
2023-05-15T13:38:31.480Z,1.10
2023-05-15T13:40:59.320Z,0.93
2023-05-15T13:43:26.965Z,1.00
2023-05-15T13:45:54.489Z,1.02
2023-05-15T13:48:22.465Z,1.15
2023-05-15T13:50:49.857Z,0.70
2023-05-15T13:53:17.258Z,0.65
2023-05-15T13:55:46.275Z,1.20
2023-05-15T13:58:14.103Z,0.90
2023-05-15T14:00:43.185Z,1.00
2023-05-15T14:03:13.305Z,1.10
2023-05-15T14:05:42.322Z,0.90
2023-05-15T14:08:09.911Z,0.90
2023-05-15T14:10:37.667Z,0.80
2023-05-15T14:13:05.093Z,0.82
2023-05-15T14:15:32.469Z,1.10
2023-05-15T14:18:00.197Z,1.10
2023-05-15T14:20:27.744Z,0.82
2023-05-15T14:22:56.378Z,0.60
2023-05-15T14:25:24.520Z,0.80
2023-05-15T14:27:51.932Z,0.90
2023-05-15T14:30:22.024Z,0.95
2023-05-15T14:32:49.705Z,1.08
2023-05-15T14:35:17.137Z,0.90
2023-05-15T14:37:45.220Z,0.90
2023-05-15T14:40:14.329Z,0.90
2023-05-15T14:42:41.722Z,0.98
2023-05-15T14:45:09.690Z,1.00
2023-05-15T14:47:37.467Z,0.80
2023-05-15T14:50:05.136Z,1.00
2023-05-15T14:52:32.567Z,0.70
2023-05-15T14:57:35.073Z,1.00
2023-05-15T15:00:04.481Z,1.08
2023-05-15T15:02:32.211Z,1.33
2023-05-15T15:04:59.781Z,1.10
2023-05-15T15:07:29.581Z,0.70
2023-05-15T15:09:56.936Z,1.00
2023-05-15T15:12:24.313Z,0.90
2023-05-15T15:14:52.039Z,1.00
2023-05-15T15:17:19.428Z,0.77
2023-05-15T15:19:46.856Z,1.30
2023-05-15T15:22:14.549Z,1.00
2023-05-15T15:24:41.883Z,1.10
2023-05-15T15:27:09.256Z,0.90
2023-05-15T15:29:36.905Z,0.80
2023-05-15T15:32:04.518Z,1.05
2023-05-15T15:34:31.942Z,0.90
2023-05-15T15:36:59.714Z,1.12
2023-05-15T15:39:27.082Z,1.30
2023-05-15T15:41:54.929Z,1.87
2023-05-15T15:44:23.697Z,2.42
2023-05-15T15:46:51.115Z,1.80
2023-05-15T15:49:18.434Z,1.37
2023-05-15T15:51:46.094Z,1.58
2023-05-15T15:54:13.442Z,1.40
2023-05-15T15:56:42.867Z,1.60
2023-05-15T15:59:10.602Z,1.45
2023-05-15T16:01:38.097Z,1.25
2023-05-15T16:04:06.253Z,1.30
2023-05-15T16:06:34.182Z,1.52
2023-05-15T16:09:01.622Z,1.30
2023-05-15T16:11:29.683Z,1.40
2023-05-15T16:13:57.029Z,1.20
2023-05-15T16:16:24.636Z,1.35
2023-05-15T16:18:52.354Z,1.70
2023-05-15T16:21:20.991Z,1.30
2023-05-15T16:23:48.398Z,1.15
2023-05-15T16:26:16.108Z,1.35
2023-05-15T16:28:43.482Z,1.33
2023-05-15T16:31:10.929Z,1.55
2023-05-15T16:33:38.582Z,1.30
2023-05-15T16:36:06.085Z,1.15
2023-05-15T16:38:33.471Z,1.23
2023-05-15T16:41:02.254Z,1.02
2023-05-15T16:43:29.710Z,0.90
2023-05-15T16:45:57.069Z,0.95
2023-05-15T16:48:27.381Z,1.17
2023-05-15T16:50:55.238Z,0.90
2023-05-15T16:53:22.763Z,1.10
2023-05-15T16:55:50.883Z,0.82
2023-05-15T16:58:18.303Z,0.68
2023-05-15T17:00:45.781Z,1.17
2023-05-15T17:03:13.750Z,0.70
2023-05-15T17:05:41.339Z,0.68
2023-05-15T17:08:08.741Z,0.82
2023-05-15T17:10:36.470Z,0.80
2023-05-15T17:13:04.645Z,0.60
2023-05-15T17:15:32.197Z,0.65
2023-05-15T17:17:59.843Z,0.90
2023-05-15T17:20:27.251Z,0.60
2023-05-15T17:22:55.631Z,0.60
2023-05-15T17:25:23.486Z,0.62
2023-05-15T17:27:50.873Z,0.40
2023-05-15T17:30:18.447Z,0.80
2023-05-15T17:32:46.147Z,0.70
2023-05-15T17:35:13.781Z,0.62
2023-05-15T17:37:41.414Z,1.00
2023-05-15T17:40:09.276Z,0.82
2023-05-15T17:42:36.828Z,0.50
2023-05-15T17:45:04.625Z,0.50
2023-05-15T17:47:32.477Z,0.40
2023-05-15T17:49:59.929Z,0.62
2023-05-15T17:52:27.557Z,0.52
2023-05-15T17:54:55.285Z,0.60
2023-05-15T17:57:22.624Z,1.00
2023-05-15T17:59:50.055Z,0.68
2023-05-15T18:02:17.674Z,0.57
2023-05-15T18:04:45.339Z,0.55
2023-05-15T18:07:12.726Z,0.98
2023-05-15T18:09:40.199Z,1.15
2023-05-15T18:12:08.028Z,1.00
2023-05-15T18:14:35.400Z,0.57
2023-05-15T18:17:03.318Z,0.65
2023-05-15T18:19:31.004Z,0.82
2023-05-15T18:22:02.977Z,0.70
2023-05-15T18:24:31.073Z,0.47
2023-05-15T18:26:58.473Z,0.60
2023-05-15T18:29:26.050Z,0.90
2023-05-15T18:31:53.807Z,1.20
2023-05-15T18:34:21.211Z,1.60
2023-05-15T18:36:52.111Z,3.05
2023-05-15T18:39:20.224Z,1.70
2023-05-15T18:41:47.630Z,1.80
2023-05-15T18:44:15.137Z,1.70
2023-05-15T18:46:43.200Z,1.37
2023-05-15T18:49:10.675Z,1.30
2023-05-15T18:51:38.172Z,1.37
2023-05-15T18:54:08.080Z,1.60
2023-05-15T18:56:35.934Z,1.12
2023-05-15T18:59:03.326Z,0.93
2023-05-15T19:01:31.017Z,1.05
2023-05-15T19:03:58.433Z,1.00
2023-05-15T19:06:25.796Z,1.17
2023-05-15T19:08:53.445Z,0.90
2023-05-15T19:11:21.325Z,1.10
2023-05-15T19:13:48.668Z,1.02
2023-05-15T19:16:16.350Z,1.10
2023-05-15T19:18:43.826Z,0.88
2023-05-15T19:21:11.387Z,0.90
2023-05-15T19:23:39.063Z,0.80
2023-05-15T19:26:06.458Z,1.15
2023-05-15T19:28:34.069Z,0.90
2023-05-15T19:31:01.751Z,1.23
2023-05-15T19:33:29.460Z,1.27
2023-05-15T19:35:56.886Z,1.70
2023-05-15T19:38:24.587Z,2.37
2023-05-15T19:40:52.990Z,1.80
2023-05-15T19:43:20.364Z,1.80
2023-05-15T19:45:48.216Z,1.45
2023-05-15T19:48:15.651Z,1.10
2023-05-15T19:50:44.999Z,1.08
2023-05-15T19:53:12.974Z,1.20
2023-05-15T19:55:40.353Z,1.58
2023-05-15T19:58:07.739Z,1.30
2023-05-15T20:00:35.536Z,1.40
2023-05-15T20:03:03.240Z,1.10
2023-05-15T20:05:30.755Z,1.30
2023-05-15T20:07:58.434Z,1.70
2023-05-15T20:10:26.581Z,1.27
2023-05-15T20:12:54.334Z,1.48
2023-05-15T20:15:21.846Z,1.70
2023-05-15T20:17:49.668Z,1.73
2023-05-15T20:20:17.682Z,1.83
2023-05-15T20:22:45.124Z,1.83
2023-05-15T20:25:12.782Z,1.65
2023-05-15T20:27:40.176Z,1.70
2023-05-15T20:30:08.001Z,1.87
2023-05-15T20:32:36.229Z,2.12
2023-05-15T20:35:04.032Z,1.40
2023-05-15T20:37:31.943Z,1.40
2023-05-15T20:40:00.163Z,1.48
2023-05-15T20:42:28.493Z,1.12
2023-05-15T20:44:56.001Z,1.50
2023-05-15T20:47:23.811Z,1.20
2023-05-15T20:49:51.314Z,1.37
2023-05-15T20:52:19.080Z,1.30
2023-05-15T20:54:46.715Z,1.55
2023-05-15T20:57:14.198Z,2.47
2023-05-15T20:59:41.756Z,1.08
2023-05-15T21:02:09.443Z,1.10
2023-05-15T21:04:37.204Z,0.98
2023-05-15T21:07:04.616Z,0.90
2023-05-15T21:09:33.143Z,0.85
2023-05-15T21:12:00.524Z,1.10
2023-05-15T21:14:29.166Z,1.10
2023-05-15T21:16:56.955Z,0.90
2023-05-15T21:19:24.621Z,0.82
2023-05-15T21:21:52.106Z,1.00
2023-05-15T21:24:20.185Z,0.73
2023-05-15T21:26:47.561Z,0.90
2023-05-15T21:29:15.007Z,1.35
2023-05-15T21:31:42.767Z,1.10
2023-05-15T21:34:10.165Z,1.00
2023-05-15T21:36:37.634Z,0.75
2023-05-15T21:39:05.435Z,0.75
2023-05-15T21:41:33.229Z,0.82
2023-05-15T21:44:00.854Z,0.98
2023-05-15T21:46:28.557Z,0.93
2023-05-15T21:48:55.952Z,1.12
2023-05-15T21:51:23.350Z,1.40
2023-05-15T21:53:51.045Z,1.00
2023-05-15T21:56:18.477Z,1.08
2023-05-15T21:58:46.071Z,0.98
2023-05-15T22:01:15.078Z,1.10
2023-05-15T22:03:42.813Z,1.12
2023-05-15T22:06:10.614Z,0.98
2023-05-15T22:08:37.971Z,1.10
2023-05-15T22:11:06.706Z,1.00
2023-05-15T22:13:34.100Z,1.20
2023-05-15T22:16:01.420Z,1.12
2023-05-15T22:18:29.139Z,1.00
2023-05-15T22:20:57.504Z,1.40
2023-05-15T22:23:24.919Z,0.98
2023-05-15T22:25:53.630Z,1.20
2023-05-15T22:28:21.261Z,1.30
2023-05-15T22:30:48.603Z,1.17
2023-05-15T22:33:16.748Z,1.08
2023-05-15T22:35:44.560Z,1.10
2023-05-15T22:38:12.282Z,1.00
2023-05-15T22:40:39.954Z,0.98
2023-05-15T22:43:07.308Z,0.75
2023-05-15T22:45:34.722Z,0.90
2023-05-15T22:48:02.463Z,1.02
2023-05-15T22:50:29.862Z,1.10
2023-05-15T22:52:58.819Z,0.90
2023-05-15T22:55:26.932Z,0.80
2023-05-15T22:57:54.347Z,1.00
2023-05-15T23:00:21.770Z,1.00
2023-05-15T23:02:49.493Z,0.93
2023-05-15T23:05:16.953Z,0.82
2023-05-15T23:07:44.338Z,1.05
2023-05-15T23:10:12.057Z,1.00
2023-05-15T23:12:39.725Z,1.05
2023-05-15T23:15:10.405Z,1.30
2023-05-15T23:17:41.319Z,1.40
2023-05-15T23:20:13.476Z,2.25
2023-05-15T23:22:41.230Z,1.80
2023-05-15T23:25:09.018Z,2.05
2023-05-15T23:27:36.935Z,1.67
2023-05-15T23:30:05.794Z,1.70
2023-05-15T23:32:34.348Z,1.65
2023-05-15T23:35:01.983Z,1.50
2023-05-15T23:37:29.627Z,1.65
2023-05-15T23:39:57.065Z,1.75
2023-05-15T23:42:24.468Z,1.80
2023-05-15T23:44:52.136Z,2.30
2023-05-15T23:47:19.484Z,1.98
2023-05-15T23:49:46.930Z,2.05
2023-05-15T23:52:14.600Z,1.70
2023-05-15T23:54:41.971Z,1.42
2023-05-15T23:57:09.324Z,1.70
2023-05-15T23:59:36.945Z,1.23
